KMFR/MFR METAR and TAF weather

Enter ICAO airport designator
Station Type Date Time Source
KMFR METAR 2022/01/26 19:53 UTC NOAA

KMFR 261953Z 00000KT 10SM CLR 07/M04 A3021 RMK AO2 SLP236 T00671039


Station Type Date Time Source
KMFR Decoded METAR 2022/01/26 19:53 UTC NOAA

ROGUE VALLEY INTERNATIONAL AIRPORT, OR, United States (KMFR) 42-23N 122-53W 396M
Jan 26, 2022 - 02:53 PM EST / 2022.01.26 1953 UTC
Wind: Calm:0
Visibility: 10 mile(s):0
Sky conditions: clear
Temperature: 44.1 F (6.7 C)
Dew Point: 25.0 F (-3.9 C)
Relative Humidity: 46%
Pressure (altimeter): 30.21 in. Hg (1023 hPa)
ob: KMFR 261953Z 00000KT 10SM CLR 07/M04 A3021 RMK AO2 SLP236 T00671039
cycle: 20

Station Type Date Time Source
KMFR TAF 2022/01/26 18:42 UTC NOAA

TAF KMFR 261740Z 2618/2718 VRB03KT P6SM SKC

Example: see airport list